Time;durP1;ratioP1;P1;durP2;ratioP2;P2;SDS_P1;SDS_P2;PMS_P1;PMS_P2;Temp;Humidity;BMP_temperature;BMP_pressure;BME280_temperature;BME280_humidity;BME280_pressure;Samples;Min_cycle;Max_cycle;Signal;HPM_P1;HPM_P2
2022/09/18 00:01:49;;;;;;;8.90;1.73;;;10.80;99.90;;;;;;5017960;28;20048;-80
2022/09/18 00:04:14;;;;;;;8.40;2.20;;;10.80;99.90;;;;;;5043751;28;20095;-80
2022/09/18 00:06:42;;;;;;;9.65;1.88;;;10.80;99.90;;;;;;5021740;28;20048;-80
2022/09/18 00:09:13;;;;;;;10.07;1.52;;;10.70;99.90;;;;;;5045952;28;20124;-80
2022/09/18 00:11:45;;;;;;;6.47;1.75;;;10.70;99.90;;;;;;5021894;28;20506;-80
2022/09/18 00:14:14;;;;;;;8.57;1.58;;;10.70;99.90;;;;;;5026977;28;20048;-80
2022/09/18 00:16:43;;;;;;;9.27;2.00;;;10.80;99.90;;;;;;5041911;28;20116;-79
2022/09/18 00:19:09;;;;;;;9.65;1.92;;;10.70;99.90;;;;;;5023116;28;20128;-80
2022/09/18 00:21:38;;;;;;;10.70;2.03;;;10.80;99.90;;;;;;5040703;28;20041;-80
2022/09/18 00:24:04;;;;;;;11.02;2.05;;;10.80;99.90;;;;;;5042047;28;20069;-80
2022/09/18 00:26:30;;;;;;;10.48;2.17;;;10.80;99.90;;;;;;5039806;28;20123;-80
2022/09/18 00:28:57;;;;;;;10.82;1.90;;;10.80;99.90;;;;;;5024707;28;20110;-80
2022/09/18 00:31:28;;;;;;;7.78;1.90;;;10.80;99.90;;;;;;5016421;28;20075;-80
2022/09/18 00:33:55;;;;;;;10.82;2.17;;;10.80;99.90;;;;;;5038719;28;20071;-80
2022/09/18 00:36:21;;;;;;;9.55;1.98;;;10.80;99.90;;;;;;5019455;28;20041;-80
2022/09/18 00:38:47;;;;;;;8.90;1.75;;;10.80;99.90;;;;;;5042416;28;20048;-80
2022/09/18 00:41:17;;;;;;;9.55;1.95;;;10.70;99.90;;;;;;5039227;28;20033;-80
2022/09/18 00:43:43;;;;;;;10.18;2.13;;;10.70;99.90;;;;;;5042600;28;20049;-78
2022/09/18 00:46:25;;;;;;;7.90;1.50;;;10.70;99.90;;;;;;5042277;28;20051;-78
2022/09/18 00:49:15;;;;;;;11.20;1.73;;;10.80;99.90;;;;;;5018543;28;20434;-77
2022/09/18 00:51:42;;;;;;;10.63;2.08;;;10.70;99.90;;;;;;5032934;28;20136;-77
2022/09/18 00:54:14;;;;;;;8.80;2.00;;;10.70;99.90;;;;;;5021527;28;20056;-77
2022/09/18 00:56:40;;;;;;;11.07;1.80;;;10.70;99.90;;;;;;5023911;28;20033;-78
2022/09/18 00:59:07;;;;;;;11.88;2.10;;;10.70;99.90;;;;;;5039693;28;20365;-78
2022/09/18 01:01:33;;;;;;;9.65;2.20;;;10.80;99.90;;;;;;5037909;28;20110;-77
2022/09/18 01:03:58;;;;;;;13.90;2.67;;;10.80;99.90;;;;;;5024922;28;20049;-78
2022/09/18 01:07:00;;;;;;;10.55;1.98;;;10.80;99.90;;;;;;5021473;28;20364;-77
2022/09/18 01:09:47;;;;;;;9.77;2.13;;;10.80;99.90;;;;;;4927952;28;20052;-76
2022/09/18 01:12:42;;;;;;;;;;;10.80;99.90;;;;;;5030221;28;20400;-78
2022/09/18 01:15:36;;;;;;;8.20;1.70;;;10.80;99.90;;;;;;4969973;28;20021;-78
2022/09/18 01:18:24;;;;;;;10.48;1.80;;;10.80;99.90;;;;;;5024196;28;20144;-80
2022/09/18 01:20:58;;;;;;;9.60;2.15;;;10.80;99.90;;;;;;5039059;28;20087;-80
2022/09/18 01:23:46;;;;;;;11.27;2.22;;;10.80;99.90;;;;;;5036469;28;20045;-80
2022/09/18 01:26:24;;;;;;;12.95;2.53;;;10.80;99.90;;;;;;5040743;28;20114;-81
2022/09/18 01:28:56;;;;;;;11.68;2.05;;;10.80;99.90;;;;;;5042687;28;20049;-81
2022/09/18 01:31:45;;;;;;;12.35;2.47;;;10.80;99.90;;;;;;5039506;28;20033;-80
2022/09/18 01:34:16;;;;;;;12.35;2.40;;;10.90;99.90;;;;;;5024876;28;20779;-80
2022/09/18 01:36:48;;;;;;;13.05;2.47;;;11.00;99.90;;;;;;5021086;28;20049;-80
2022/09/18 01:39:37;;;;;;;12.50;2.17;;;10.90;99.90;;;;;;5037077;28;20111;-79
2022/09/18 01:42:04;;;;;;;11.13;2.08;;;10.90;99.90;;;;;;5039977;28;20045;-79
2022/09/18 01:44:32;;;;;;;10.68;2.10;;;10.90;99.90;;;;;;5042500;28;20047;-79
2022/09/18 01:47:00;;;;;;;13.38;2.65;;;10.90;99.90;;;;;;5040059;28;20116;-79
2022/09/18 01:49:37;;;;;;;11.13;2.20;;;10.90;99.90;;;;;;5039498;28;20102;-79
2022/09/18 01:52:13;;;;;;;13.70;2.13;;;10.90;99.90;;;;;;5014854;28;20075;-79
2022/09/18 01:54:42;;;;;;;14.27;2.65;;;10.90;99.90;;;;;;5018377;28;20049;-79
2022/09/18 01:57:11;;;;;;;12.73;2.33;;;10.90;99.90;;;;;;5025167;28;20454;-79
2022/09/18 01:59:59;;;;;;;8.30;1.70;;;11.00;99.90;;;;;;5040397;28;20627;-79
2022/09/18 02:02:36;;;;;;;12.88;2.40;;;11.00;99.90;;;;;;5038799;28;20041;-79
2022/09/18 02:05:08;;;;;;;13.93;2.03;;;11.00;99.90;;;;;;5024004;28;20122;-79
2022/09/18 02:07:46;;;;;;;10.90;2.40;;;11.00;99.90;;;;;;5019210;28;20476;-80
2022/09/18 02:10:12;;;;;;;10.98;2.20;;;11.00;99.90;;;;;;5040005;28;20164;-79
2022/09/18 02:12:39;;;;;;;8.07;1.73;;;11.00;99.90;;;;;;5037848;28;20049;-79
2022/09/18 02:15:08;;;;;;;;;;;11.00;99.90;;;;;;5040906;28;20075;-80
2022/09/18 02:17:47;;;;;;;11.75;2.13;;;10.90;99.90;;;;;;5039486;28;20004;-80
2022/09/18 02:20:34;;;;;;;13.65;2.00;;;11.00;99.90;;;;;;5039637;28;20072;-81
2022/09/18 02:23:05;;;;;;;13.27;2.60;;;11.00;99.90;;;;;;5036328;28;20045;-81
2022/09/18 02:25:50;;;;;;;10.65;1.90;;;11.00;99.90;;;;;;5037616;28;20041;-81
2022/09/18 02:28:20;;;;;;;12.65;2.00;;;11.00;99.90;;;;;;5019929;28;20048;-81
2022/09/18 02:30:46;;;;;;;11.90;2.03;;;11.00;99.90;;;;;;5041961;28;20637;-81
2022/09/18 02:33:28;;;;;;;11.57;2.50;;;11.00;99.90;;;;;;5039812;28;20388;-81
2022/09/18 02:36:30;;;;;;;12.80;2.67;;;11.00;99.90;;;;;;5016398;28;20036;-81
2022/09/18 02:39:29;;;;;;;13.15;2.53;;;11.00;99.90;;;;;;5020774;28;20052;-82
2022/09/18 02:42:15;;;;;;;11.85;2.00;;;11.00;99.90;;;;;;5037671;28;20044;-81
2022/09/18 02:45:22;;;;;;;10.23;2.08;;;11.10;99.90;;;;;;5040088;28;20043;-81
2022/09/18 02:48:23;;;;;;;10.48;1.95;;;11.00;99.90;;;;;;4981519;28;20602;-81
2022/09/18 02:51:06;;;;;;;14.30;2.50;;;11.00;99.90;;;;;;4982101;28;20120;-81
2022/09/18 02:53:56;;;;;;;9.63;1.90;;;11.00;99.90;;;;;;5032023;28;20059;-81
2022/09/18 02:56:32;;;;;;;9.82;1.95;;;11.00;99.90;;;;;;5020647;28;20040;-81
2022/09/18 02:59:15;;;;;;;12.27;2.40;;;11.00;99.90;;;;;;5042179;28;20099;-81
2022/09/18 03:01:44;;;;;;;12.85;2.28;;;11.00;99.90;;;;;;5041004;28;20041;-81
2022/09/18 03:04:18;;;;;;;10.93;2.20;;;11.00;99.90;;;;;;5020290;28;20053;-82
2022/09/18 03:06:43;;;;;;;14.70;1.90;;;11.00;99.90;;;;;;5040895;28;20049;-81
2022/09/18 03:09:09;;;;;;;9.25;1.98;;;11.10;99.90;;;;;;5046007;28;20045;-82
2022/09/18 03:11:36;;;;;;;12.23;2.38;;;11.10;99.90;;;;;;5045000;28;20047;-81
2022/09/18 03:14:02;;;;;;;7.65;1.85;;;11.10;99.90;;;;;;5022846;28;20064;-82
2022/09/18 03:16:27;;;;;;;10.43;2.25;;;11.10;99.90;;;;;;5025186;28;20499;-81
2022/09/18 03:18:53;;;;;;;17.40;2.30;;;11.10;99.90;;;;;;5025778;28;20049;-81
2022/09/18 03:21:19;;;;;;;11.70;1.88;;;11.10;99.90;;;;;;5039627;28;20083;-81
2022/09/18 03:23:45;;;;;;;9.02;2.20;;;11.10;99.90;;;;;;5042510;28;20079;-81
2022/09/18 03:26:11;;;;;;;12.18;2.03;;;11.10;99.90;;;;;;5044029;28;20902;-81
2022/09/18 03:28:36;;;;;;;11.30;2.45;;;11.10;99.90;;;;;;5040380;28;20048;-81
2022/09/18 03:31:02;;;;;;;11.55;2.03;;;11.10;99.90;;;;;;5026059;28;20045;-82
2022/09/18 03:33:28;;;;;;;9.68;2.00;;;11.10;99.90;;;;;;5042672;28;20049;-81
2022/09/18 03:35:53;;;;;;;10.48;2.33;;;11.20;99.90;;;;;;5026361;28;20040;-80
2022/09/18 03:38:19;;;;;;;11.52;2.25;;;11.20;99.90;;;;;;5039641;28;20049;-80
2022/09/18 03:40:45;;;;;;;11.43;1.83;;;11.20;99.90;;;;;;5042659;28;20507;-80
2022/09/18 03:43:10;;;;;;;10.52;2.00;;;11.20;99.90;;;;;;5043287;28;20041;-80
2022/09/18 03:45:36;;;;;;;7.65;2.35;;;11.20;99.90;;;;;;5024318;28;20499;-80
2022/09/18 03:48:02;;;;;;;7.28;1.58;;;11.20;99.90;;;;;;5042637;28;20037;-80
2022/09/18 03:50:28;;;;;;;8.95;2.03;;;11.20;99.90;;;;;;5043075;28;20319;-81
2022/09/18 03:52:54;;;;;;;10.40;1.80;;;11.20;99.90;;;;;;5021142;28;21058;-82
2022/09/18 03:55:21;;;;;;;11.80;1.70;;;11.20;99.90;;;;;;5023807;28;20604;-82
2022/09/18 03:57:47;;;;;;;8.60;1.98;;;11.30;99.90;;;;;;5040046;28;20702;-82
2022/09/18 04:00:14;;;;;;;8.43;1.77;;;11.20;99.90;;;;;;5037375;28;20045;-82
2022/09/18 04:02:40;;;;;;;10.30;2.00;;;11.20;99.90;;;;;;5025166;28;20083;-81
2022/09/18 04:05:06;;;;;;;12.45;1.95;;;11.20;99.90;;;;;;5040971;28;20136;-81
2022/09/18 04:07:31;;;;;;;7.57;1.83;;;11.20;99.90;;;;;;5018460;28;20069;-82
2022/09/18 04:09:57;;;;;;;10.40;1.80;;;11.20;99.90;;;;;;5020165;28;20072;-80
2022/09/18 04:12:23;;;;;;;10.60;2.25;;;11.30;99.90;;;;;;5042636;28;20545;-82
2022/09/18 04:14:49;;;;;;;8.95;2.13;;;11.20;99.90;;;;;;5043555;28;20498;-82
2022/09/18 04:17:14;;;;;;;9.88;1.70;;;11.20;99.90;;;;;;5042786;28;20116;-82
2022/09/18 04:19:40;;;;;;;11.48;2.55;;;11.20;99.90;;;;;;5038285;28;20531;-82
2022/09/18 04:22:06;;;;;;;6.93;1.42;;;11.30;99.90;;;;;;5038293;28;20772;-81
2022/09/18 04:24:31;;;;;;;7.10;1.65;;;11.30;99.90;;;;;;5043841;28;20045;-82
2022/09/18 04:26:57;;;;;;;8.10;1.92;;;11.30;99.90;;;;;;5020787;28;20160;-82
2022/09/18 04:29:23;;;;;;;8.85;1.90;;;11.30;99.90;;;;;;5023662;28;20144;-82
2022/09/18 04:31:49;;;;;;;12.90;2.17;;;11.30;99.90;;;;;;5038413;28;20069;-82
2022/09/18 04:34:17;;;;;;;9.05;1.42;;;11.30;99.90;;;;;;5043017;28;20598;-81
2022/09/18 04:36:42;;;;;;;8.77;2.13;;;11.30;99.90;;;;;;5044189;28;20439;-80
2022/09/18 04:39:08;;;;;;;9.13;1.60;;;11.30;99.90;;;;;;5021472;28;20060;-81
2022/09/18 04:41:35;;;;;;;10.48;1.88;;;11.20;99.90;;;;;;5025771;28;20784;-80
2022/09/18 04:44:01;;;;;;;6.03;1.38;;;11.20;99.90;;;;;;5045364;28;20091;-81
2022/09/18 04:46:27;;;;;;;10.80;1.45;;;11.20;99.90;;;;;;5040425;28;20148;-81
2022/09/18 04:48:53;;;;;;;8.88;2.03;;;11.20;99.90;;;;;;5024133;28;20120;-81
2022/09/18 04:51:19;;;;;;;8.05;1.67;;;11.20;99.90;;;;;;5042532;28;20056;-81
2022/09/18 04:53:45;;;;;;;11.55;2.03;;;11.20;99.90;;;;;;5018836;28;20611;-80
2022/09/18 04:56:10;;;;;;;6.10;1.30;;;11.20;99.90;;;;;;5042526;28;20140;-81
2022/09/18 04:58:36;;;;;;;8.68;1.67;;;11.20;99.90;;;;;;5039379;28;20124;-81
2022/09/18 05:01:01;;;;;;;9.40;1.48;;;11.20;99.90;;;;;;5022509;28;20045;-82
2022/09/18 05:03:27;;;;;;;10.32;1.98;;;11.20;99.90;;;;;;5041130;28;20118;-80
2022/09/18 05:05:53;;;;;;;8.02;1.73;;;11.10;99.90;;;;;;5021893;28;20076;-82
2022/09/18 05:08:20;;;;;;;9.30;1.70;;;11.20;99.90;;;;;;5039091;28;20519;-81
2022/09/18 05:10:46;;;;;;;8.07;1.70;;;11.30;99.90;;;;;;5022787;28;20047;-82
2022/09/18 05:13:12;;;;;;;10.23;1.80;;;11.20;99.90;;;;;;5024989;28;20041;-82
2022/09/18 05:15:37;;;;;;;8.38;1.88;;;11.20;99.90;;;;;;5038298;28;20102;-82
2022/09/18 05:18:05;;;;;;;8.73;1.73;;;11.20;99.90;;;;;;5020176;28;20120;-82
2022/09/18 05:20:33;;;;;;;8.23;1.40;;;11.20;99.90;;;;;;5043197;28;20346;-83
2022/09/18 05:22:59;;;;;;;7.88;1.42;;;11.20;99.90;;;;;;5038967;28;20037;-82
2022/09/18 05:25:27;;;;;;;7.75;1.58;;;11.20;99.90;;;;;;5025242;28;20084;-82
2022/09/18 05:27:58;;;;;;;10.13;1.60;;;11.20;99.90;;;;;;5040207;28;20056;-82
2022/09/18 05:30:25;;;;;;;9.77;1.85;;;11.10;99.90;;;;;;5040915;28;20045;-82
2022/09/18 05:32:59;;;;;;;9.05;1.70;;;11.20;99.90;;;;;;5018332;28;20049;-82
2022/09/18 05:35:27;;;;;;;7.85;1.52;;;11.20;99.90;;;;;;5033344;28;21761;-82
2022/09/18 05:37:53;;;;;;;11.38;2.00;;;11.20;99.90;;;;;;5037394;28;20041;-82
2022/09/18 05:40:22;;;;;;;7.95;1.42;;;11.20;99.90;;;;;;5023279;28;20073;-83
2022/09/18 05:42:49;;;;;;;7.65;1.50;;;11.20;99.90;;;;;;5041085;28;20110;-83
2022/09/18 05:45:15;;;;;;;9.23;1.55;;;11.20;99.90;;;;;;5036691;28;20048;-82
2022/09/18 05:47:41;;;;;;;8.65;1.70;;;11.20;99.90;;;;;;5041433;28;20048;-82
2022/09/18 05:50:08;;;;;;;9.15;2.00;;;11.20;99.90;;;;;;5020356;28;20076;-82
2022/09/18 05:52:34;;;;;;;6.90;1.80;;;11.20;99.90;;;;;;5037902;28;20048;-82
2022/09/18 05:55:00;;;;;;;6.22;1.40;;;11.30;99.90;;;;;;5043712;28;20086;-81
2022/09/18 05:57:26;;;;;;;7.95;1.60;;;11.20;99.90;;;;;;5054483;28;20105;-82
2022/09/18 05:59:51;;;;;;;8.60;1.65;;;11.20;99.90;;;;;;5022822;28;20047;-83
2022/09/18 06:02:17;;;;;;;7.72;1.65;;;11.30;99.90;;;;;;5035992;28;20455;-83
2022/09/18 06:04:43;;;;;;;8.00;1.33;;;11.20;99.90;;;;;;5044759;28;21820;-84
2022/09/18 06:07:08;;;;;;;8.60;1.60;;;11.30;99.90;;;;;;5045215;28;20044;-79
2022/09/18 06:09:34;;;;;;;9.98;2.13;;;11.30;99.90;;;;;;5043918;28;20479;-79
2022/09/18 06:12:00;;;;;;;7.78;1.65;;;11.40;99.90;;;;;;5023761;28;20136;-80
2022/09/18 06:14:26;;;;;;;8.88;1.58;;;11.30;99.90;;;;;;5023851;28;20081;-82
2022/09/18 06:16:52;;;;;;;6.25;1.75;;;11.30;99.90;;;;;;5040601;28;20075;-83
2022/09/18 06:19:18;;;;;;;8.82;1.88;;;11.30;99.90;;;;;;5042688;28;20048;-82
2022/09/18 06:21:43;;;;;;;5.90;1.17;;;11.40;99.90;;;;;;5033775;28;20115;-84
2022/09/18 06:24:09;;;;;;;6.00;1.30;;;11.40;99.90;;;;;;5041277;28;20413;-82
2022/09/18 06:26:34;;;;;;;5.45;1.40;;;11.30;99.90;;;;;;5038767;28;20068;-85
2022/09/18 06:29:00;;;;;;;7.03;1.40;;;11.40;99.90;;;;;;5023136;28;20151;-84
2022/09/18 06:31:26;;;;;;;7.85;1.90;;;11.40;99.90;;;;;;5024792;28;20065;-84
2022/09/18 06:33:52;;;;;;;4.32;1.33;;;11.30;99.90;;;;;;5040934;28;20037;-80
2022/09/18 06:36:17;;;;;;;8.82;1.95;;;11.30;99.90;;;;;;5046782;28;20405;-81
2022/09/18 06:38:43;;;;;;;5.68;1.30;;;11.40;99.90;;;;;;5029290;28;20049;-82
2022/09/18 06:41:09;;;;;;;5.65;1.40;;;11.30;99.90;;;;;;5022576;28;20081;-84
2022/09/18 06:43:35;;;;;;;5.70;1.48;;;11.30;99.90;;;;;;5020375;28;20072;-80
2022/09/18 06:46:02;;;;;;;6.93;1.35;;;11.30;99.90;;;;;;5042271;28;20153;-84
2022/09/18 06:48:28;;;;;;;5.78;1.08;;;11.40;99.90;;;;;;5043372;28;20051;-81
2022/09/18 06:50:56;;;;;;;6.80;1.40;;;11.40;99.90;;;;;;5047754;28;20033;-78
2022/09/18 06:53:23;;;;;;;7.30;1.30;;;11.40;99.90;;;;;;5039763;28;20493;-80
2022/09/18 06:55:49;;;;;;;8.57;1.25;;;11.40;99.90;;;;;;5043682;28;20053;-80
2022/09/18 06:58:16;;;;;;;7.88;1.40;;;11.40;99.90;;;;;;5044092;28;20048;-80
2022/09/18 07:00:42;;;;;;;5.87;1.43;;;11.40;99.90;;;;;;5041295;28;20110;-81
2022/09/18 07:03:08;;;;;;;6.78;1.33;;;11.30;99.90;;;;;;5020142;28;20445;-78
2022/09/18 07:05:36;;;;;;;7.88;1.80;;;11.30;99.90;;;;;;5024699;28;20651;-78
2022/09/18 07:08:02;;;;;;;6.55;1.23;;;11.40;99.90;;;;;;5045238;28;20052;-77
2022/09/18 07:10:28;;;;;;;6.20;1.23;;;11.30;99.90;;;;;;5044362;28;20041;-79
2022/09/18 07:12:58;;;;;;;6.13;1.27;;;11.40;99.90;;;;;;5027338;28;20148;-79
2022/09/18 07:15:25;;;;;;;6.07;1.35;;;11.40;99.90;;;;;;5041780;28;20406;-79
2022/09/18 07:17:54;;;;;;;6.70;1.40;;;11.40;99.90;;;;;;5044031;28;20126;-79
2022/09/18 07:20:19;;;;;;;7.47;1.65;;;11.40;99.90;;;;;;5043686;28;20152;-75
2022/09/18 07:22:54;;;;;;;7.50;1.35;;;11.40;99.90;;;;;;5022010;28;20037;-83
2022/09/18 07:25:20;;;;;;;6.03;1.38;;;11.50;99.90;;;;;;5033691;28;20041;-79
2022/09/18 07:27:46;;;;;;;8.27;1.30;;;11.50;99.90;;;;;;5042724;28;20098;-80
2022/09/18 07:30:15;;;;;;;7.15;1.30;;;11.50;99.90;;;;;;5039463;28;20041;-79
2022/09/18 07:32:41;;;;;;;4.15;1.17;;;11.50;99.90;;;;;;5037766;28;20041;-84
2022/09/18 07:35:08;;;;;;;9.20;1.77;;;11.50;99.90;;;;;;5043399;28;20049;-84
2022/09/18 07:37:34;;;;;;;3.83;1.25;;;11.50;99.90;;;;;;5041346;28;20155;-83
2022/09/18 07:39:59;;;;;;;5.75;1.63;;;11.50;99.90;;;;;;5038852;28;20085;-81
2022/09/18 07:42:26;;;;;;;7.35;1.55;;;11.50;99.90;;;;;;5040014;28;20189;-82
2022/09/18 07:44:52;;;;;;;8.60;1.45;;;11.50;99.90;;;;;;5040937;28;20068;-82
2022/09/18 07:47:23;;;;;;;8.65;1.63;;;11.50;99.90;;;;;;5039934;28;20082;-81
2022/09/18 07:49:49;;;;;;;8.13;2.20;;;11.50;99.90;;;;;;5041117;28;20518;-81
2022/09/18 07:52:15;;;;;;;9.80;1.98;;;11.50;99.90;;;;;;5043220;28;20045;-80
2022/09/18 07:54:40;;;;;;;6.57;1.65;;;11.60;99.90;;;;;;5046240;28;20037;-79
2022/09/18 07:57:06;;;;;;;10.02;1.73;;;11.60;99.90;;;;;;5046815;28;20041;-79
2022/09/18 07:59:32;;;;;;;8.32;1.45;;;11.60;99.90;;;;;;5040698;28;20055;-80
2022/09/18 08:01:57;;;;;;;5.65;1.25;;;11.60;99.90;;;;;;5044859;28;20041;-78
2022/09/18 08:04:23;;;;;;;5.57;1.40;;;11.60;99.90;;;;;;5040280;28;20049;-80
2022/09/18 08:06:53;;;;;;;6.95;1.63;;;11.60;99.90;;;;;;5045903;28;20447;-78
2022/09/18 08:09:20;;;;;;;7.40;1.60;;;11.60;99.90;;;;;;5044463;28;20048;-77
2022/09/18 08:11:46;;;;;;;6.90;1.90;;;11.60;99.90;;;;;;5020214;28;20041;-78
2022/09/18 08:14:11;;;;;;;10.38;2.08;;;11.60;99.90;;;;;;5026261;28;20793;-80
2022/09/18 08:16:38;;;;;;;7.25;1.73;;;11.60;99.90;;;;;;5024674;28;20039;-81
2022/09/18 08:19:03;;;;;;;6.47;1.38;;;11.60;99.90;;;;;;5044260;28;20037;-80
2022/09/18 08:21:29;;;;;;;8.15;1.40;;;11.60;99.90;;;;;;5044457;28;20037;-79
2022/09/18 08:23:56;;;;;;;7.30;1.50;;;11.60;99.90;;;;;;5044368;28;20087;-80
2022/09/18 08:26:21;;;;;;;7.65;1.60;;;11.60;99.90;;;;;;5043729;28;20045;-78
2022/09/18 08:28:47;;;;;;;6.25;2.03;;;11.60;99.90;;;;;;5025505;28;20439;-79
2022/09/18 08:31:13;;;;;;;5.97;1.90;;;11.60;99.90;;;;;;5044311;28;20056;-78
2022/09/18 08:33:39;;;;;;;8.05;1.92;;;11.60;99.90;;;;;;5043788;28;20041;-82
2022/09/18 08:36:05;;;;;;;8.00;1.88;;;11.60;99.90;;;;;;5041205;28;20090;-81
2022/09/18 08:38:31;;;;;;;6.88;1.52;;;11.60;99.90;;;;;;5046594;28;20053;-80
2022/09/18 08:41:06;;;;;;;7.40;1.63;;;11.60;99.90;;;;;;5045664;28;20048;-80
2022/09/18 08:43:51;;;;;;;6.60;1.58;;;11.60;99.90;;;;;;5024228;28;20102;-81
2022/09/18 08:46:28;;;;;;;7.28;1.40;;;11.60;99.90;;;;;;5043046;28;20052;-81
2022/09/18 08:49:19;;;;;;;6.50;1.85;;;11.50;99.90;;;;;;5042872;28;20048;-79
2022/09/18 08:51:53;;;;;;;7.60;1.60;;;11.50;99.90;;;;;;5046041;28;20053;-78
2022/09/18 08:54:56;;;;;;;7.35;1.35;;;11.60;99.90;;;;;;5041768;28;20054;-78
2022/09/18 08:57:36;;;;;;;6.50;1.55;;;11.50;99.90;;;;;;5016375;28;20037;-81
2022/09/18 09:00:13;;;;;;;6.90;1.40;;;11.50;99.90;;;;;;5024673;28;20135;-78
2022/09/18 09:02:40;;;;;;;3.60;1.00;;;11.60;99.90;;;;;;5039721;28;20072;-80
2022/09/18 09:05:12;;;;;;;4.93;1.40;;;11.60;99.90;;;;;;5040583;28;20041;-78
2022/09/18 09:07:50;;;;;;;6.88;1.88;;;11.70;99.90;;;;;;5045025;28;20041;-79
2022/09/18 09:10:33;;;;;;;5.68;1.20;;;11.70;99.90;;;;;;5040375;28;20139;-78
2022/09/18 09:13:24;;;;;;;4.45;1.27;;;11.70;99.90;;;;;;5043021;28;20041;-78
2022/09/18 09:16:01;;;;;;;5.63;1.58;;;11.70;99.90;;;;;;5025651;28;20057;-80
2022/09/18 09:18:45;;;;;;;5.00;1.20;;;11.70;99.90;;;;;;5041251;28;20041;-81
2022/09/18 09:21:21;;;;;;;5.47;1.30;;;11.70;99.90;;;;;;5041125;28;20091;-77
2022/09/18 09:24:22;;;;;;;5.88;1.30;;;11.70;99.90;;;;;;5026001;28;20128;-77
2022/09/18 09:26:48;;;;;;;4.43;1.30;;;11.70;99.90;;;;;;5045591;28;20049;-77
2022/09/18 09:29:32;;;;;;;5.72;1.40;;;11.70;99.90;;;;;;5020519;28;20039;-75
2022/09/18 09:32:04;;;;;;;6.78;1.52;;;11.70;99.90;;;;;;5041158;28;20784;-76
2022/09/18 09:34:39;;;;;;;7.13;1.50;;;11.70;99.90;;;;;;5038501;28;20575;-78
2022/09/18 09:37:17;;;;;;;6.25;1.30;;;11.70;99.90;;;;;;5037211;28;20140;-77
2022/09/18 09:40:08;;;;;;;7.75;1.67;;;11.80;99.90;;;;;;5037765;28;20644;-81
2022/09/18 09:42:43;;;;;;;6.47;1.63;;;11.70;99.90;;;;;;5042428;28;20151;-77
2022/09/18 09:45:14;;;;;;;5.70;1.40;;;11.80;99.90;;;;;;5025883;28;20075;-79
2022/09/18 09:48:01;;;;;;;5.75;1.45;;;11.80;99.90;;;;;;5041796;28;20045;-81
2022/09/18 09:50:29;;;;;;;;;;;11.80;99.90;;;;;;5040585;28;20547;-81
2022/09/18 09:52:58;;;;;;;5.28;1.27;;;11.80;99.90;;;;;;5041836;28;20010;-81
2022/09/18 09:55:30;;;;;;;14.25;9.25;;;11.80;99.90;;;;;;5042999;28;20067;-80
2022/09/18 09:58:21;;;;;;;9.88;5.90;;;11.80;99.90;;;;;;5026289;28;20045;-82
2022/09/18 10:01:02;;;;;;;7.28;2.50;;;11.80;99.90;;;;;;5023235;28;20142;-79
2022/09/18 10:03:33;;;;;;;23.73;12.80;;;11.80;99.90;;;;;;5023270;28;20288;-80
2022/09/18 10:06:15;;;;;;;18.13;12.30;;;11.80;99.90;;;;;;5030519;28;20493;-83
2022/09/18 10:08:41;;;;;;;10.40;5.47;;;11.70;99.90;;;;;;5042429;28;20083;-82
2022/09/18 10:11:10;;;;;;;11.57;4.47;;;11.80;99.90;;;;;;5026976;28;20597;-81
2022/09/18 10:13:42;;;;;;;10.75;3.42;;;11.70;99.90;;;;;;5023993;28;20049;-81
2022/09/18 10:16:25;;;;;;;8.50;3.28;;;11.70;99.90;;;;;;5026870;28;20534;-81
2022/09/18 10:18:51;;;;;;;6.90;2.90;;;11.80;99.90;;;;;;5023165;28;20103;-80
2022/09/18 10:21:22;;;;;;;5.97;2.13;;;11.70;99.90;;;;;;5049053;28;20478;-81
2022/09/18 10:24:20;;;;;;;4.47;1.63;;;11.70;99.90;;;;;;5025616;28;20053;-81
2022/09/18 10:26:59;;;;;;;9.00;1.40;;;11.80;99.90;;;;;;5045513;28;20045;-81
2022/09/18 10:29:25;;;;;;;5.20;1.50;;;11.70;99.90;;;;;;5045228;28;20092;-81
2022/09/18 10:31:57;;;;;;;5.93;1.52;;;11.70;99.90;;;;;;5043543;28;20045;-81
2022/09/18 10:34:47;;;;;;;6.22;1.30;;;11.70;99.90;;;;;;5022990;28;20049;-81
2022/09/18 10:37:38;;;;;;;4.25;1.27;;;11.80;99.90;;;;;;5044206;28;20091;-81
2022/09/18 10:40:06;;;;;;;5.38;1.48;;;11.80;99.90;;;;;;5037604;28;20045;-81
2022/09/18 10:42:33;;;;;;;5.10;1.20;;;11.80;99.90;;;;;;5026306;28;20171;-81
2022/09/18 10:45:05;;;;;;;4.90;0.90;;;11.80;99.90;;;;;;5048509;28;20503;-81
2022/09/18 10:47:33;;;;;;;6.10;1.15;;;11.90;99.90;;;;;;5056718;28;20033;-81
2022/09/18 10:50:05;;;;;;;5.95;1.38;;;11.90;99.90;;;;;;5053452;28;20124;-80
2022/09/18 10:52:38;;;;;;;6.18;1.30;;;11.90;99.90;;;;;;5050956;28;20049;-81
2022/09/18 10:55:07;;;;;;;5.10;1.38;;;11.90;99.90;;;;;;5046244;28;20544;-81
2022/09/18 10:57:45;;;;;;;6.03;1.50;;;11.90;99.90;;;;;;5046564;28;20041;-81
2022/09/18 11:00:10;;;;;;;;;;;11.90;99.90;;;;;;5043675;28;20084;-82
2022/09/18 11:02:45;;;;;;;5.35;1.45;;;11.90;99.90;;;;;;5045830;28;20660;-81
2022/09/18 11:05:22;;;;;;;5.25;1.58;;;11.90;99.90;;;;;;5043245;28;20037;-81
2022/09/18 11:07:49;;;;;;;6.35;1.45;;;12.00;99.90;;;;;;5043404;28;20045;-81
2022/09/18 11:10:17;;;;;;;6.93;1.35;;;12.00;99.90;;;;;;5043598;28;20040;-81
2022/09/18 11:12:48;;;;;;;7.53;1.50;;;12.00;99.90;;;;;;5045728;28;20124;-81
2022/09/18 11:15:17;;;;;;;6.88;1.58;;;12.10;99.90;;;;;;5044601;28;20045;-82
2022/09/18 11:17:51;;;;;;;4.63;1.17;;;12.10;99.90;;;;;;5048083;28;20175;-82
2022/09/18 11:20:27;;;;;;;6.80;1.50;;;12.10;99.90;;;;;;5030327;28;20048;-81
2022/09/18 11:22:53;;;;;;;8.90;1.52;;;12.10;99.90;;;;;;5030258;28;20080;-81
2022/09/18 11:25:25;;;;;;;5.05;1.42;;;12.10;99.90;;;;;;5028863;28;20080;-81
2022/09/18 11:27:58;;;;;;;6.35;1.58;;;12.20;99.90;;;;;;5029709;28;20041;-82
2022/09/18 11:30:27;;;;;;;6.25;1.50;;;12.20;99.90;;;;;;5014320;28;20516;-81
2022/09/18 11:33:08;;;;;;;10.02;2.03;;;12.20;99.90;;;;;;5031153;28;20377;-81
2022/09/18 11:35:35;;;;;;;8.32;1.92;;;12.20;99.90;;;;;;5031101;28;20132;-81
2022/09/18 11:38:06;;;;;;;6.80;1.60;;;12.20;99.90;;;;;;5046744;28;20049;-82
2022/09/18 11:40:43;;;;;;;8.77;2.42;;;12.20;99.90;;;;;;5045394;28;20037;-81
2022/09/18 11:43:25;;;;;;;6.40;1.60;;;12.30;99.90;;;;;;5028934;28;20087;-81
2022/09/18 11:46:12;;;;;;;7.82;1.88;;;12.30;99.90;;;;;;5048223;28;20562;-81
2022/09/18 11:48:44;;;;;;;5.32;1.85;;;12.30;99.90;;;;;;5047837;28;20043;-81
2022/09/18 11:51:19;;;;;;;5.85;1.50;;;12.30;99.90;;;;;;5029476;28;20463;-81
2022/09/18 11:53:54;;;;;;;7.32;1.60;;;12.30;99.90;;;;;;5030044;28;20059;-81
2022/09/18 11:56:41;;;;;;;8.20;1.90;;;12.40;99.90;;;;;;5028416;28;20077;-81
2022/09/18 11:59:46;;;;;;;7.03;1.65;;;12.40;99.90;;;;;;5018803;28;20725;-81
2022/09/18 12:02:27;;;;;;;7.25;1.80;;;12.40;99.90;;;;;;5027539;28;20073;-81
2022/09/18 12:05:08;;;;;;;7.93;1.52;;;12.50;99.90;;;;;;5027258;28;20049;-83
2022/09/18 12:07:48;;;;;;;7.20;1.50;;;12.60;99.90;;;;;;5034717;28;20140;-81
2022/09/18 12:10:54;;;;;;;7.25;1.70;;;12.70;99.90;;;;;;5023550;28;20047;-73
2022/09/18 12:13:48;;;;;;;7.97;1.52;;;12.70;99.90;;;;;;5035948;28;20036;-80
2022/09/18 12:16:22;;;;;;;5.60;1.83;;;12.80;99.90;;;;;;5042174;28;20074;-77
2022/09/18 12:18:54;;;;;;;5.70;1.33;;;12.80;99.90;;;;;;5046490;28;20048;-81
2022/09/18 12:21:45;;;;;;;6.18;1.40;;;12.80;99.90;;;;;;5026299;28;20434;-79
2022/09/18 12:24:16;;;;;;;9.73;2.08;;;12.80;99.90;;;;;;5014709;28;20143;-81
2022/09/18 12:27:00;;;;;;;7.63;1.63;;;12.90;99.90;;;;;;5027660;28;20116;-77
2022/09/18 12:29:43;;;;;;;8.27;1.80;;;12.90;99.90;;;;;;5024143;28;20053;-77
2022/09/18 12:32:29;;;;;;;9.63;1.73;;;12.90;99.90;;;;;;5022568;28;20080;-75
2022/09/18 12:35:23;;;;;;;7.87;1.47;;;12.90;99.90;;;;;;5032420;28;20323;-73
2022/09/18 12:37:57;;;;;;;10.23;1.90;;;12.90;99.90;;;;;;5038037;28;20048;-74
2022/09/18 12:40:40;;;;;;;9.73;1.75;;;12.90;99.90;;;;;;5043024;28;20040;-74
2022/09/18 12:43:38;;;;;;;8.00;1.70;;;13.00;99.90;;;;;;5019517;28;20104;-76
2022/09/18 12:46:21;;;;;;;9.45;2.00;;;13.00;99.90;;;;;;5014895;28;20774;-76
2022/09/18 12:49:09;;;;;;;6.60;1.48;;;13.10;99.90;;;;;;5025106;28;20057;-76
2022/09/18 12:51:38;;;;;;;6.93;1.45;;;13.10;99.90;;;;;;5034878;28;20577;-73
2022/09/18 12:54:19;;;;;;;8.52;1.83;;;13.10;99.90;;;;;;5038557;28;20527;-73
2022/09/18 12:57:14;;;;;;;8.20;1.70;;;13.10;99.90;;;;;;5028425;28;20100;-74
2022/09/18 13:00:08;;;;;;;10.05;1.70;;;13.20;99.90;;;;;;5045161;28;20159;-73
2022/09/18 13:02:49;;;;;;;7.97;1.67;;;13.20;99.90;;;;;;5007306;28;20049;-77
2022/09/18 13:05:28;;;;;;;8.13;1.92;;;13.20;99.90;;;;;;5024804;28;20124;-77
2022/09/18 13:08:11;;;;;;;9.25;2.17;;;13.20;99.90;;;;;;5042818;28;20118;-78
2022/09/18 13:10:43;;;;;;;12.32;3.42;;;13.20;99.90;;;;;;5028297;28;20439;-77
2022/09/18 13:14:00;;;;;;;20.30;7.53;;;13.30;99.90;;;;;;5023038;28;21716;-76